createdAt,value
2022-12-04T05:05:59.658Z,-80
2022-12-04T05:08:30.591Z,-81
2022-12-04T05:11:11.869Z,-81
2022-12-04T05:13:46.504Z,-81
2022-12-04T05:16:15.731Z,-81
2022-12-04T05:19:04.701Z,-81
2022-12-04T05:21:33.531Z,-81
2022-12-04T05:24:01.786Z,-81
2022-12-04T05:26:29.890Z,-81
2022-12-04T05:28:57.913Z,-81
2022-12-04T05:31:25.997Z,-81
2022-12-04T05:33:54.054Z,-81
2022-12-04T05:36:22.162Z,-81
2022-12-04T05:38:52.308Z,-81
2022-12-04T05:41:20.571Z,-81
2022-12-04T05:43:48.561Z,-82
2022-12-04T05:46:16.967Z,-81
2022-12-04T05:48:45.076Z,-81
2022-12-04T05:51:13.239Z,-82
2022-12-04T05:53:41.604Z,-81
2022-12-04T05:56:12.003Z,-81
2022-12-04T05:58:40.237Z,-81
2022-12-04T06:01:13.750Z,-82
2022-12-04T06:03:42.118Z,-81
2022-12-04T06:06:20.820Z,-81
2022-12-04T06:08:49.804Z,-82
2022-12-04T06:11:20.957Z,-81
2022-12-04T06:13:49.337Z,-81
2022-12-04T06:16:18.898Z,-82
2022-12-04T06:18:50.731Z,-82
2022-12-04T06:21:19.640Z,-82
2022-12-04T06:23:48.836Z,-83
2022-12-04T06:26:18.638Z,-81
2022-12-04T06:28:46.752Z,-81
2022-12-04T06:31:16.762Z,-80
2022-12-04T06:33:45.054Z,-83
2022-12-04T06:36:16.198Z,-82
2022-12-04T06:38:44.475Z,-82
2022-12-04T06:41:14.209Z,-82
2022-12-04T06:43:44.391Z,-83
2022-12-04T06:46:13.984Z,-83
2022-12-04T06:48:43.035Z,-82
2022-12-04T06:51:13.899Z,-82
2022-12-04T06:53:42.650Z,-82
2022-12-04T06:56:12.873Z,-82
2022-12-04T06:58:40.940Z,-81
2022-12-04T07:01:11.771Z,-81
2022-12-04T07:03:41.717Z,-82
2022-12-04T07:06:14.490Z,-81
2022-12-04T07:08:43.174Z,-81
2022-12-04T07:11:11.539Z,-82
2022-12-04T07:13:39.681Z,-80
2022-12-04T07:16:11.266Z,-81
2022-12-04T07:18:39.467Z,-81
2022-12-04T07:21:08.096Z,-81
2022-12-04T07:23:36.190Z,-81
2022-12-04T07:26:07.759Z,-80
2022-12-04T07:28:35.968Z,-82
2022-12-04T07:31:05.618Z,-82
2022-12-04T07:33:35.217Z,-81
2022-12-04T07:36:05.001Z,-81
2022-12-04T07:38:34.798Z,-81
2022-12-04T07:41:04.366Z,-81
2022-12-04T07:43:33.481Z,-82
2022-12-04T07:46:06.128Z,-83
2022-12-04T07:48:35.903Z,-82
2022-12-04T07:51:05.191Z,-83
2022-12-04T07:53:33.721Z,-83
2022-12-04T07:56:01.887Z,-83
2022-12-04T07:58:30.286Z,-83
2022-12-04T08:01:06.788Z,-82
2022-12-04T08:03:36.465Z,-81
2022-12-04T08:06:04.890Z,-81
2022-12-04T08:08:33.554Z,-81
2022-12-04T08:11:02.159Z,-81
2022-12-04T08:13:30.223Z,-81
2022-12-04T08:15:58.559Z,-81
2022-12-04T08:18:26.651Z,-82
2022-12-04T08:20:56.476Z,-82
2022-12-04T08:23:24.511Z,-82
2022-12-04T08:25:52.565Z,-80
2022-12-04T08:28:20.667Z,-81
2022-12-04T08:30:48.767Z,-80
2022-12-04T08:33:17.265Z,-80
2022-12-04T08:35:45.366Z,-80
2022-12-04T08:38:15.020Z,-81
2022-12-04T08:40:43.090Z,-80
2022-12-04T08:43:11.191Z,-80
2022-12-04T08:45:39.228Z,-80
2022-12-04T08:48:07.745Z,-79
2022-12-04T08:50:36.044Z,-80
2022-12-04T08:53:04.077Z,-80
2022-12-04T08:55:33.503Z,-80
2022-12-04T08:58:01.861Z,-79
2022-12-04T09:00:31.473Z,-79
2022-12-04T09:02:59.584Z,-79
2022-12-04T09:05:27.586Z,-79
2022-12-04T09:07:55.942Z,-79
2022-12-04T09:10:24.890Z,-79
2022-12-04T09:12:54.328Z,-79
2022-12-04T09:15:22.769Z,-80
2022-12-04T09:17:50.810Z,-79
2022-12-04T09:20:18.972Z,-79
2022-12-04T09:23:03.423Z,-79
2022-12-04T09:25:32.264Z,-79
2022-12-04T09:28:02.337Z,-79
2022-12-04T09:30:30.409Z,-79
2022-12-04T09:32:58.420Z,-80
2022-12-04T09:35:26.418Z,-79
2022-12-04T09:37:54.433Z,-79
2022-12-04T09:40:33.515Z,-80
2022-12-04T09:43:11.924Z,-78
2022-12-04T09:45:45.260Z,-79
2022-12-04T09:48:14.131Z,-82
2022-12-04T09:50:43.922Z,-79
2022-12-04T09:53:15.119Z,-79
2022-12-04T09:55:46.719Z,-79
2022-12-04T09:58:18.547Z,-79
2022-12-04T10:00:50.740Z,-79
2022-12-04T10:03:21.051Z,-79
2022-12-04T10:05:55.311Z,-79
2022-12-04T10:08:24.930Z,-79
2022-12-04T10:11:00.370Z,-79
2022-12-04T10:13:53.874Z,-79
2022-12-04T10:16:25.941Z,-79
2022-12-04T10:19:00.863Z,-79
2022-12-04T10:21:39.158Z,-79
2022-12-04T10:24:17.516Z,-79
2022-12-04T10:26:47.130Z,-79
2022-12-04T10:29:21.407Z,-79
2022-12-04T10:31:51.016Z,-79
2022-12-04T10:34:22.234Z,-79
2022-12-04T10:36:54.414Z,-79
2022-12-04T10:39:26.088Z,-79
2022-12-04T10:41:58.802Z,-79
2022-12-04T10:44:28.353Z,-79
2022-12-04T10:47:00.723Z,-79
2022-12-04T10:49:30.487Z,-79
2022-12-04T10:51:58.487Z,-79
2022-12-04T10:54:32.210Z,-79
2022-12-04T10:57:01.915Z,-78
2022-12-04T10:59:32.163Z,-79
2022-12-04T11:02:06.610Z,-83
2022-12-04T11:04:36.006Z,-81
2022-12-04T11:07:06.192Z,-81
2022-12-04T11:09:34.751Z,-81
2022-12-04T11:12:10.712Z,-82
2022-12-04T11:14:46.635Z,-82
2022-12-04T11:17:18.738Z,-82
2022-12-04T11:19:46.931Z,-83
2022-12-04T11:22:17.202Z,-82
2022-12-04T11:24:51.446Z,-82
2022-12-04T11:27:22.794Z,-83
2022-12-04T11:29:52.652Z,-83
2022-12-04T11:32:24.279Z,-83
2022-12-04T11:34:53.775Z,-82
2022-12-04T11:37:25.722Z,-83
2022-12-04T11:39:54.391Z,-83
2022-12-04T11:42:26.279Z,-83
2022-12-04T11:44:57.806Z,-84
2022-12-04T11:47:27.689Z,-83
2022-12-04T11:50:01.695Z,-83
2022-12-04T11:52:37.216Z,-83
2022-12-04T11:55:12.473Z,-83
2022-12-04T11:57:45.257Z,-83
2022-12-04T12:00:17.150Z,-82
2022-12-04T12:02:58.353Z,-83
2022-12-04T12:06:22.614Z,-82
2022-12-04T12:09:10.256Z,-82
2022-12-04T12:11:43.357Z,-81
2022-12-04T12:14:17.094Z,-81
2022-12-04T12:16:57.600Z,-82
2022-12-04T12:19:47.475Z,-81
2022-12-04T12:22:26.106Z,-81
2022-12-04T12:24:59.931Z,-81
2022-12-04T12:27:42.450Z,-80
2022-12-04T12:30:16.328Z,-81
2022-12-04T12:33:00.055Z,-81
2022-12-04T12:35:32.179Z,-81
2022-12-04T12:38:04.466Z,-81
2022-12-04T12:40:36.409Z,-80
2022-12-04T12:43:08.219Z,-80
2022-12-04T12:45:44.484Z,-81
2022-12-04T12:48:23.319Z,-80
2022-12-04T12:51:14.759Z,-80
2022-12-04T12:53:44.794Z,-81
2022-12-04T12:56:13.401Z,-81
2022-12-04T12:58:45.611Z,-80
2022-12-04T13:01:18.170Z,-80
2022-12-04T13:03:53.602Z,-80
2022-12-04T13:06:27.499Z,-81
2022-12-04T13:09:05.053Z,-81
2022-12-04T13:11:34.033Z,-81
2022-12-04T13:14:04.178Z,-80
2022-12-04T13:16:36.688Z,-81
2022-12-04T13:19:14.523Z,-80
2022-12-04T13:21:46.554Z,-81
2022-12-04T13:24:44.000Z,-81
2022-12-04T13:27:18.067Z,-81
2022-12-04T13:30:00.358Z,-78
2022-12-04T13:32:53.033Z,-78
2022-12-04T13:35:29.342Z,-78
2022-12-04T13:38:11.603Z,-77
2022-12-04T13:40:42.474Z,-77
2022-12-04T13:43:32.270Z,-78
2022-12-04T13:46:02.034Z,-78
2022-12-04T13:48:40.784Z,-77
2022-12-04T13:51:26.092Z,-79
2022-12-04T13:54:19.466Z,-77
2022-12-04T13:56:49.129Z,-78
2022-12-04T13:59:36.404Z,-77
2022-12-04T14:02:17.818Z,-78
2022-12-04T14:04:47.606Z,-78
2022-12-04T14:07:27.225Z,-77
2022-12-04T14:09:56.734Z,-78
2022-12-04T14:12:29.218Z,-78
2022-12-04T14:15:00.368Z,-78
2022-12-04T14:17:30.576Z,-77
2022-12-04T14:20:05.808Z,-78
2022-12-04T14:22:44.973Z,-78
2022-12-04T14:25:39.226Z,-78
2022-12-04T14:28:26.528Z,-78
2022-12-04T14:31:11.528Z,-77
2022-12-04T14:33:44.059Z,-78
2022-12-04T14:36:19.136Z,-77
2022-12-04T14:38:50.471Z,-78
2022-12-04T14:41:25.654Z,-78
2022-12-04T14:43:55.365Z,-78
2022-12-04T14:46:29.505Z,-77
2022-12-04T14:49:04.033Z,-78
2022-12-04T14:51:35.771Z,-78
2022-12-04T14:54:11.490Z,-78
2022-12-04T14:56:49.117Z,-77
2022-12-04T14:59:18.780Z,-77
2022-12-04T15:01:48.463Z,-78
2022-12-04T15:04:23.728Z,-78
2022-12-04T15:06:58.345Z,-78
2022-12-04T15:09:47.299Z,-78
2022-12-04T15:12:37.123Z,-78
2022-12-04T15:15:16.424Z,-77
2022-12-04T15:17:44.711Z,-77
2022-12-04T15:20:16.378Z,-77
2022-12-04T15:22:44.961Z,-77
2022-12-04T15:25:21.303Z,-76
2022-12-04T15:27:50.763Z,-76
2022-12-04T15:30:20.967Z,-76
2022-12-04T15:32:51.694Z,-80
2022-12-04T15:35:24.390Z,-76
2022-12-04T15:37:52.927Z,-77
2022-12-04T15:40:24.613Z,-76
2022-12-04T15:42:52.922Z,-80
2022-12-04T15:45:26.726Z,-80
2022-12-04T15:47:55.834Z,-80
2022-12-04T15:50:26.988Z,-80
2022-12-04T15:53:00.492Z,-80
2022-12-04T15:55:31.863Z,-80
2022-12-04T15:58:02.258Z,-81
2022-12-04T16:00:32.577Z,-81
2022-12-04T16:03:01.243Z,-82
2022-12-04T16:05:35.021Z,-82
2022-12-04T16:08:19.807Z,-82
2022-12-04T16:10:59.325Z,-80
2022-12-04T16:13:32.837Z,-77
2022-12-04T16:16:01.176Z,-76
2022-12-04T16:18:30.149Z,-76
2022-12-04T16:20:58.336Z,-77
2022-12-04T16:23:27.416Z,-77
2022-12-04T16:25:56.904Z,-77
2022-12-04T16:28:25.237Z,-77
2022-12-04T16:30:53.748Z,-77
2022-12-04T16:33:21.761Z,-77
2022-12-04T16:35:50.219Z,-77
2022-12-04T16:38:19.129Z,-77
2022-12-04T16:40:48.539Z,-77
2022-12-04T16:43:18.804Z,-77
2022-12-04T16:45:49.671Z,-77
2022-12-04T16:48:17.965Z,-78
2022-12-04T16:50:46.759Z,-78
2022-12-04T16:53:17.612Z,-77
2022-12-04T16:55:51.275Z,-78
2022-12-04T16:58:21.519Z,-77
2022-12-04T17:00:53.381Z,-77
2022-12-04T17:03:26.225Z,-77
2022-12-04T17:05:54.218Z,-76
2022-12-04T17:08:22.851Z,-77
2022-12-04T17:10:50.928Z,-76
2022-12-04T17:13:20.976Z,-78
2022-12-04T17:15:49.187Z,-79
2022-12-04T17:18:21.111Z,-78
2022-12-04T17:20:49.969Z,-78
2022-12-04T17:23:18.114Z,-78
2022-12-04T17:25:46.511Z,-78
2022-12-04T17:28:14.576Z,-78
2022-12-04T17:30:47.139Z,-78
2022-12-04T17:33:15.318Z,-78
2022-12-04T17:35:44.613Z,-78
2022-12-04T17:38:12.784Z,-78
2022-12-04T17:40:41.064Z,-78
2022-12-04T17:43:09.171Z,-78
2022-12-04T17:45:37.751Z,-78
2022-12-04T17:48:07.713Z,-78
2022-12-04T17:50:36.022Z,-79
2022-12-04T17:53:04.429Z,-78
2022-12-04T17:55:32.452Z,-78
2022-12-04T17:58:00.475Z,-78
2022-12-04T18:00:28.544Z,-78
2022-12-04T18:02:56.575Z,-78
2022-12-04T18:05:26.067Z,-82
2022-12-04T18:07:54.218Z,-82
2022-12-04T18:10:22.411Z,-82
2022-12-04T18:12:50.595Z,-82
2022-12-04T18:15:18.700Z,-82
2022-12-04T18:17:46.939Z,-81
2022-12-04T18:20:15.481Z,-82
2022-12-04T18:22:44.988Z,-84
2022-12-04T18:25:13.355Z,-84
2022-12-04T18:27:42.188Z,-84
2022-12-04T18:30:11.853Z,-84
2022-12-04T18:32:39.976Z,-83
2022-12-04T18:35:08.607Z,-83
2022-12-04T18:37:37.498Z,-82
2022-12-04T18:40:08.626Z,-81
2022-12-04T18:42:37.028Z,-81
2022-12-04T18:45:06.034Z,-81
2022-12-04T18:47:34.739Z,-81
2022-12-04T18:50:02.773Z,-81
2022-12-04T18:52:30.813Z,-81
2022-12-04T18:54:58.812Z,-78
2022-12-04T18:57:28.588Z,-78
2022-12-04T18:59:57.105Z,-78
2022-12-04T19:02:25.291Z,-78
2022-12-04T19:04:53.484Z,-78
2022-12-04T19:07:21.657Z,-78
2022-12-04T19:12:39.001Z,-78
2022-12-04T19:15:07.922Z,-79
2022-12-04T19:17:36.005Z,-79
2022-12-04T19:20:04.615Z,-79
2022-12-04T19:22:32.663Z,-78
2022-12-04T19:25:00.718Z,-78
2022-12-04T19:27:28.714Z,-79
2022-12-04T19:29:58.438Z,-78
2022-12-04T19:32:27.120Z,-78
2022-12-04T19:34:55.139Z,-78
2022-12-04T19:37:23.103Z,-78
2022-12-04T19:39:51.423Z,-79
2022-12-04T19:42:19.817Z,-78
2022-12-04T19:44:49.367Z,-78
2022-12-04T19:47:19.068Z,-78
2022-12-04T19:49:47.935Z,-78
2022-12-04T19:52:16.197Z,-79
2022-12-04T19:54:44.625Z,-77
2022-12-04T19:57:14.707Z,-79
2022-12-04T19:59:46.263Z,-79
2022-12-04T20:02:14.717Z,-78
2022-12-04T20:04:44.274Z,-79
2022-12-04T20:07:12.329Z,-78
2022-12-04T20:09:40.415Z,-79
2022-12-04T20:12:08.770Z,-79
2022-12-04T20:14:36.878Z,-78
2022-12-04T20:17:05.247Z,-79
2022-12-04T20:19:33.451Z,-79
2022-12-04T20:22:03.192Z,-79
2022-12-04T20:24:31.203Z,-79
2022-12-04T20:26:59.544Z,-78
2022-12-04T20:29:27.930Z,-78
2022-12-04T20:31:57.298Z,-78
2022-12-04T20:34:25.331Z,-78
2022-12-04T20:36:54.360Z,-78
2022-12-04T20:39:23.806Z,-78
2022-12-04T20:41:52.190Z,-78
2022-12-04T20:44:21.175Z,-78
2022-12-04T20:46:49.790Z,-78
2022-12-04T20:49:22.124Z,-78
2022-12-04T20:51:51.616Z,-78
2022-12-04T20:54:21.487Z,-78
2022-12-04T20:56:52.961Z,-78
2022-12-04T20:59:22.354Z,-78
2022-12-04T21:01:51.559Z,-77
2022-12-04T21:04:19.999Z,-78
2022-12-04T21:06:48.182Z,-77
2022-12-04T21:09:17.931Z,-78
2022-12-04T21:11:48.180Z,-78
2022-12-04T21:14:36.774Z,-78
2022-12-04T21:17:06.708Z,-78
2022-12-04T21:19:35.027Z,-78
2022-12-04T21:22:03.189Z,-78
2022-12-04T21:24:36.277Z,-78
2022-12-04T21:27:04.517Z,-78
2022-12-04T21:29:34.750Z,-78
2022-12-04T21:32:03.125Z,-78
2022-12-04T21:34:31.551Z,-78
2022-12-04T21:36:59.863Z,-78
2022-12-04T21:39:28.206Z,-78
2022-12-04T21:42:13.408Z,-78
2022-12-04T21:44:43.131Z,-78
2022-12-04T21:47:11.211Z,-77
2022-12-04T21:49:39.707Z,-77
2022-12-04T21:52:08.106Z,-78
2022-12-04T21:54:36.182Z,-78
2022-12-04T21:57:04.341Z,-78
2022-12-04T21:59:32.365Z,-78
2022-12-04T22:02:02.040Z,-78
2022-12-04T22:04:30.149Z,-78
2022-12-04T22:06:58.218Z,-78
2022-12-04T22:09:26.939Z,-78
2022-12-04T22:11:55.022Z,-78
2022-12-04T22:14:23.352Z,-78
2022-12-04T22:16:52.224Z,-78
2022-12-04T22:19:21.663Z,-81
2022-12-04T22:21:49.976Z,-81
2022-12-04T22:24:18.037Z,-81
2022-12-04T22:26:46.499Z,-78
2022-12-04T22:29:48.693Z,-78
2022-12-04T22:32:02.887Z,-78
2022-12-04T22:34:32.474Z,-78
2022-12-04T22:37:00.537Z,-78
2022-12-04T22:39:28.975Z,-79
2022-12-04T22:41:57.356Z,-78
2022-12-04T22:44:25.365Z,-78
2022-12-04T22:46:53.492Z,-78
2022-12-04T22:49:21.702Z,-90
